createdAt,value
2022-11-05T00:00:28.094Z,956.63
2022-11-05T00:01:23.259Z,956.63
2022-11-05T00:02:18.525Z,956.65
2022-11-05T00:03:14.456Z,956.63
2022-11-05T00:04:09.649Z,956.65
2022-11-05T00:05:05.100Z,956.67
2022-11-05T00:06:00.259Z,956.69
2022-11-05T00:06:55.759Z,956.73
2022-11-05T00:07:50.840Z,956.75
2022-11-05T00:08:45.939Z,956.79
2022-11-05T00:09:41.740Z,956.81
2022-11-05T00:10:37.003Z,956.83
2022-11-05T00:11:32.906Z,956.87
2022-11-05T00:12:27.946Z,956.87
2022-11-05T00:13:23.305Z,956.87
2022-11-05T00:14:19.110Z,956.89
2022-11-05T00:15:14.345Z,956.87
2022-11-05T00:16:09.791Z,956.89
2022-11-05T00:17:05.733Z,956.91
2022-11-05T00:18:00.984Z,956.93
2022-11-05T00:18:56.797Z,956.93
2022-11-05T00:19:51.993Z,956.95
2022-11-05T00:20:47.272Z,956.93
2022-11-05T00:21:43.261Z,956.95
2022-11-05T00:22:38.053Z,956.97
2022-11-05T00:23:33.150Z,956.95
2022-11-05T00:24:28.370Z,956.99
2022-11-05T00:25:23.582Z,957.00
2022-11-05T00:26:18.731Z,956.99
2022-11-05T00:27:13.807Z,956.95
2022-11-05T00:28:10.140Z,956.95
2022-11-05T00:29:05.360Z,956.95
2022-11-05T00:30:00.581Z,956.97
2022-11-05T00:30:56.379Z,956.97
2022-11-05T00:31:51.630Z,956.95
2022-11-05T00:32:47.031Z,956.97
2022-11-05T00:33:41.870Z,956.99
2022-11-05T00:34:37.082Z,956.97
2022-11-05T00:35:32.415Z,957.00
2022-11-05T00:36:28.489Z,957.00
2022-11-05T00:37:23.721Z,957.04
2022-11-05T00:38:18.965Z,957.02
2022-11-05T00:39:18.465Z,957.00
2022-11-05T00:40:13.417Z,957.00
2022-11-05T00:41:08.655Z,957.00
2022-11-05T00:42:03.889Z,957.02
2022-11-05T00:42:58.999Z,957.02
2022-11-05T00:43:54.062Z,957.04
2022-11-05T00:44:49.062Z,957.02
2022-11-05T00:45:44.143Z,957.08
2022-11-05T00:46:39.235Z,957.06
2022-11-05T00:47:34.290Z,957.08
2022-11-05T00:48:30.060Z,957.10
2022-11-05T00:49:24.507Z,957.12
2022-11-05T00:50:19.753Z,957.14
2022-11-05T00:51:14.833Z,957.16
2022-11-05T00:52:09.932Z,957.18
2022-11-05T00:53:05.211Z,957.18
2022-11-05T00:54:00.136Z,957.22
2022-11-05T00:54:55.261Z,957.22
2022-11-05T00:55:50.298Z,957.24
2022-11-05T00:56:45.409Z,957.26
2022-11-05T00:57:40.608Z,957.26
2022-11-05T00:58:35.857Z,957.30
2022-11-05T00:59:30.875Z,957.32
2022-11-05T01:00:25.976Z,957.30
2022-11-05T01:01:21.146Z,957.30
2022-11-05T01:02:16.192Z,957.28
2022-11-05T01:03:11.438Z,957.32
2022-11-05T01:04:06.285Z,957.34
2022-11-05T01:05:01.342Z,957.36
2022-11-05T01:05:56.424Z,957.34
2022-11-05T01:06:51.503Z,957.36
2022-11-05T01:07:46.552Z,957.38
2022-11-05T01:08:41.902Z,957.36
2022-11-05T01:09:36.731Z,957.38
2022-11-05T01:10:31.822Z,957.38
2022-11-05T01:11:28.409Z,957.40
2022-11-05T01:12:23.617Z,957.40
2022-11-05T01:13:19.125Z,957.40
2022-11-05T01:14:13.932Z,957.40
2022-11-05T01:15:08.998Z,957.40
2022-11-05T01:16:08.395Z,957.42
2022-11-05T01:17:03.476Z,957.44
2022-11-05T01:17:58.676Z,957.44
2022-11-05T01:18:53.919Z,957.47
2022-11-05T01:19:49.460Z,957.47
2022-11-05T01:20:44.392Z,957.53
2022-11-05T01:21:39.490Z,957.53
2022-11-05T01:22:34.668Z,957.53
2022-11-05T01:23:29.912Z,957.53
2022-11-05T01:24:25.028Z,957.51
2022-11-05T01:25:20.117Z,957.53
2022-11-05T01:26:15.286Z,957.57
2022-11-05T01:27:10.346Z,957.57
2022-11-05T01:28:05.536Z,957.55
2022-11-05T01:29:00.852Z,957.57
2022-11-05T01:29:55.665Z,957.61
2022-11-05T01:30:50.819Z,957.59
2022-11-05T01:31:49.138Z,957.61
2022-11-05T01:32:44.194Z,957.61
2022-11-05T01:33:39.385Z,957.61
2022-11-05T01:34:34.653Z,957.61
2022-11-05T01:35:29.733Z,957.61
2022-11-05T01:36:25.001Z,957.63
2022-11-05T01:37:20.094Z,957.63
2022-11-05T01:38:15.264Z,957.61
2022-11-05T01:39:10.713Z,957.65
2022-11-05T01:40:05.660Z,957.67
2022-11-05T01:41:00.893Z,957.65
2022-11-05T01:41:56.348Z,957.67
2022-11-05T01:42:51.152Z,957.65
2022-11-05T01:43:46.216Z,957.67
2022-11-05T01:44:41.303Z,957.65
2022-11-05T01:45:36.384Z,957.67
2022-11-05T01:46:31.572Z,957.69
2022-11-05T01:47:26.899Z,957.69
2022-11-05T01:48:21.720Z,957.69
2022-11-05T01:49:17.087Z,957.69
2022-11-05T01:50:11.858Z,957.69
2022-11-05T01:51:07.052Z,957.69
2022-11-05T01:52:02.177Z,957.69
2022-11-05T01:52:57.419Z,957.69
2022-11-05T01:53:52.721Z,957.71
2022-11-05T01:54:50.387Z,957.69
2022-11-05T01:55:45.435Z,957.69
2022-11-05T01:56:40.578Z,957.71
2022-11-05T01:57:35.524Z,957.71
2022-11-05T01:58:30.712Z,957.73
2022-11-05T01:59:25.623Z,957.73
2022-11-05T02:00:20.837Z,957.73
2022-11-05T02:01:15.834Z,957.73
2022-11-05T02:02:10.954Z,957.77
2022-11-05T02:03:06.145Z,957.75
2022-11-05T02:04:01.438Z,957.73
2022-11-05T02:04:56.407Z,957.73
2022-11-05T02:05:57.176Z,957.75
2022-11-05T02:06:52.360Z,957.75
2022-11-05T02:07:47.743Z,957.75
2022-11-05T02:08:43.422Z,957.73
2022-11-05T02:09:38.815Z,957.75
2022-11-05T02:10:33.766Z,957.75
2022-11-05T02:11:30.230Z,957.75
2022-11-05T02:12:25.470Z,957.75
2022-11-05T02:13:21.260Z,957.75
2022-11-05T02:14:16.732Z,957.73
2022-11-05T02:15:11.733Z,957.75
2022-11-05T02:16:07.488Z,957.73
2022-11-05T02:17:02.679Z,957.77
2022-11-05T02:17:58.465Z,957.79
2022-11-05T02:18:53.653Z,957.77
2022-11-05T02:19:49.020Z,957.77
2022-11-05T02:20:49.397Z,957.77
2022-11-05T02:21:40.839Z,957.77
2022-11-05T02:22:34.993Z,957.73
2022-11-05T02:23:29.972Z,957.77
2022-11-05T02:24:25.118Z,957.71
2022-11-05T02:25:20.100Z,957.73
2022-11-05T02:26:15.178Z,957.75
2022-11-05T02:27:10.271Z,957.75
2022-11-05T02:28:05.278Z,957.77
2022-11-05T02:29:00.361Z,957.77
2022-11-05T02:30:00.900Z,957.75
2022-11-05T02:30:55.722Z,957.75
2022-11-05T02:31:50.945Z,957.77
2022-11-05T02:32:46.753Z,957.75
2022-11-05T02:33:42.013Z,957.73
2022-11-05T02:34:37.208Z,957.73
2022-11-05T02:35:33.575Z,957.73
2022-11-05T02:36:28.675Z,957.73
2022-11-05T02:37:24.467Z,957.71
2022-11-05T02:38:19.642Z,957.73
2022-11-05T02:39:15.007Z,957.75
2022-11-05T02:40:10.804Z,957.77
2022-11-05T02:41:06.482Z,957.77
2022-11-05T02:42:05.042Z,957.81
2022-11-05T02:42:56.930Z,957.79
2022-11-05T02:43:52.607Z,957.79
2022-11-05T02:44:47.825Z,957.81
2022-11-05T02:45:43.848Z,957.81
2022-11-05T02:46:38.845Z,957.83
2022-11-05T02:47:33.936Z,957.85
2022-11-05T02:48:29.736Z,957.85
2022-11-05T02:49:24.955Z,957.85
2022-11-05T02:50:20.293Z,957.87
2022-11-05T02:51:16.571Z,957.89
2022-11-05T02:52:11.522Z,957.85
2022-11-05T02:53:07.476Z,957.83
2022-11-05T02:54:03.210Z,957.83
2022-11-05T02:54:57.892Z,957.85
2022-11-05T02:55:53.724Z,957.85
2022-11-05T02:56:48.965Z,957.83
2022-11-05T02:57:44.761Z,957.87
2022-11-05T02:58:39.951Z,957.85
2022-11-05T02:59:35.315Z,957.87
2022-11-05T03:00:30.994Z,957.89
2022-11-05T03:01:26.366Z,957.89
2022-11-05T03:02:21.470Z,957.91
2022-11-05T03:03:17.829Z,957.89
2022-11-05T03:04:13.095Z,957.89
2022-11-05T03:05:08.960Z,957.89
2022-11-05T03:06:04.102Z,957.87
2022-11-05T03:06:59.172Z,957.89
2022-11-05T03:07:54.385Z,957.87
2022-11-05T03:08:50.308Z,957.87
2022-11-05T03:09:45.567Z,957.87
2022-11-05T03:10:40.781Z,957.91
2022-11-05T03:11:36.742Z,957.93
2022-11-05T03:12:31.694Z,957.91
2022-11-05T03:13:27.065Z,957.93
2022-11-05T03:14:23.237Z,957.93
2022-11-05T03:15:18.964Z,957.95
2022-11-05T03:16:14.512Z,957.93
2022-11-05T03:17:09.543Z,957.97
2022-11-05T03:18:04.655Z,957.95
2022-11-05T03:19:00.434Z,957.97
2022-11-05T03:19:55.560Z,957.99
2022-11-05T03:20:51.483Z,957.97
2022-11-05T03:21:46.436Z,957.99
2022-11-05T03:22:41.559Z,958.01
2022-11-05T03:23:36.739Z,958.02
2022-11-05T03:24:31.902Z,958.02
2022-11-05T03:25:27.012Z,958.02
2022-11-05T03:26:22.079Z,957.99
2022-11-05T03:27:17.209Z,958.01
2022-11-05T03:28:16.616Z,958.01
2022-11-05T03:29:11.698Z,958.02
2022-11-05T03:30:06.835Z,958.02
2022-11-05T03:31:02.025Z,958.04
2022-11-05T03:31:58.361Z,958.04
2022-11-05T03:32:53.554Z,958.06
2022-11-05T03:33:48.799Z,958.06
2022-11-05T03:34:48.245Z,958.06
2022-11-05T03:35:43.141Z,958.06
2022-11-05T03:36:38.259Z,958.08
2022-11-05T03:37:33.376Z,958.08
2022-11-05T03:38:28.454Z,958.06
2022-11-05T03:39:23.512Z,958.10
2022-11-05T03:40:18.555Z,958.10
2022-11-05T03:41:13.536Z,958.14
2022-11-05T03:42:08.845Z,958.12
2022-11-05T03:43:03.631Z,958.10
2022-11-05T03:43:58.739Z,958.12
2022-11-05T03:44:53.839Z,958.12
2022-11-05T03:45:49.030Z,958.12
2022-11-05T03:46:44.800Z,958.14
2022-11-05T03:47:39.209Z,958.14
2022-11-05T03:48:34.305Z,958.14
2022-11-05T03:49:29.419Z,958.16
2022-11-05T03:50:24.321Z,958.20
2022-11-05T03:51:19.438Z,958.20
2022-11-05T03:52:14.500Z,958.20
2022-11-05T03:53:09.819Z,958.22
2022-11-05T03:54:04.568Z,958.24
2022-11-05T03:54:59.669Z,958.22
2022-11-05T03:55:54.872Z,958.24
2022-11-05T03:56:49.942Z,958.26
2022-11-05T03:57:44.950Z,958.26
2022-11-05T03:58:39.895Z,958.26
2022-11-05T03:59:35.110Z,958.30
2022-11-05T04:00:30.496Z,958.30
2022-11-05T04:01:25.563Z,958.30
2022-11-05T04:02:20.863Z,958.32
2022-11-05T04:03:15.514Z,958.34
2022-11-05T04:04:10.984Z,958.36
2022-11-05T04:05:05.617Z,958.38
2022-11-05T04:06:00.754Z,958.40
2022-11-05T04:06:55.945Z,958.44
2022-11-05T04:07:51.052Z,958.42
2022-11-05T04:08:46.339Z,958.44
2022-11-05T04:09:41.288Z,958.46
2022-11-05T04:10:36.283Z,958.44
2022-11-05T04:11:31.370Z,958.46
2022-11-05T04:12:26.362Z,958.48
2022-11-05T04:13:21.427Z,958.48
2022-11-05T04:14:16.518Z,958.51
2022-11-05T04:15:11.606Z,958.49
2022-11-05T04:16:06.703Z,958.49
2022-11-05T04:17:02.780Z,958.49
2022-11-05T04:17:57.948Z,958.51
2022-11-05T04:18:53.146Z,958.51
2022-11-05T04:19:48.262Z,958.53
2022-11-05T04:20:43.744Z,958.51
2022-11-05T04:21:38.994Z,958.55
2022-11-05T04:22:34.105Z,958.53
2022-11-05T04:23:29.430Z,958.51
2022-11-05T04:24:24.509Z,958.53
2022-11-05T04:25:19.650Z,958.51
2022-11-05T04:26:14.692Z,958.51
2022-11-05T04:27:09.977Z,958.53
2022-11-05T04:28:05.042Z,958.55
2022-11-05T04:29:03.868Z,958.57
2022-11-05T04:29:56.253Z,958.59
2022-11-05T04:30:50.302Z,958.59
2022-11-05T04:31:45.243Z,958.59
2022-11-05T04:32:40.717Z,958.65
2022-11-05T04:33:35.631Z,958.67
2022-11-05T04:34:30.612Z,958.63
2022-11-05T04:35:25.680Z,958.63
2022-11-05T04:36:20.795Z,958.65
2022-11-05T04:37:15.799Z,958.65
2022-11-05T04:38:10.882Z,958.69
2022-11-05T04:39:06.159Z,958.69
2022-11-05T04:40:01.172Z,958.67
2022-11-05T04:40:56.260Z,958.67
2022-11-05T04:41:51.339Z,958.67
2022-11-05T04:42:46.439Z,958.67
2022-11-05T04:43:41.654Z,958.69
2022-11-05T04:44:36.672Z,958.69
2022-11-05T04:45:33.183Z,958.67
2022-11-05T04:46:27.963Z,958.67
2022-11-05T04:47:23.115Z,958.71
2022-11-05T04:48:18.497Z,958.71
2022-11-05T04:49:13.240Z,958.69
2022-11-05T04:50:08.329Z,958.75
2022-11-05T04:51:03.423Z,958.73
2022-11-05T04:51:58.514Z,958.75
2022-11-05T04:52:53.660Z,958.73
2022-11-05T04:53:48.722Z,958.75
2022-11-05T04:54:43.738Z,958.75
2022-11-05T04:55:38.808Z,958.73
2022-11-05T04:56:34.251Z,958.77
2022-11-05T04:57:33.405Z,958.77
2022-11-05T04:58:28.481Z,958.79
2022-11-05T04:59:23.730Z,958.79
2022-11-05T05:00:18.831Z,958.79
2022-11-05T05:01:14.052Z,958.81
2022-11-05T05:02:09.084Z,958.81
2022-11-05T05:03:04.072Z,958.85
2022-11-05T05:03:59.074Z,958.87
2022-11-05T05:04:54.160Z,958.85
2022-11-05T05:05:51.846Z,958.85
2022-11-05T05:06:44.353Z,958.85
2022-11-05T05:07:39.569Z,958.85
2022-11-05T05:08:35.346Z,958.89
2022-11-05T05:09:30.884Z,958.89
2022-11-05T05:10:25.844Z,958.85
2022-11-05T05:11:21.640Z,958.87
2022-11-05T05:12:16.889Z,958.89
2022-11-05T05:13:13.117Z,958.87
2022-11-05T05:14:07.874Z,958.89
2022-11-05T05:15:03.115Z,958.91
2022-11-05T05:15:59.184Z,958.91
2022-11-05T05:16:54.415Z,958.93
2022-11-05T05:17:49.784Z,958.93
2022-11-05T05:18:46.537Z,958.93
2022-11-05T05:19:41.203Z,958.95
2022-11-05T05:20:36.998Z,958.93
2022-11-05T05:21:32.181Z,958.93
2022-11-05T05:22:27.540Z,958.93
2022-11-05T05:23:23.525Z,958.93
2022-11-05T05:24:18.351Z,958.95
2022-11-05T05:25:14.169Z,958.93
2022-11-05T05:26:09.229Z,959.02
2022-11-05T05:27:04.866Z,959.02
2022-11-05T05:28:00.258Z,959.02
2022-11-05T05:28:55.532Z,959.02
2022-11-05T05:29:50.674Z,959.02
2022-11-05T05:30:47.107Z,959.08
2022-11-05T05:31:42.381Z,959.06
2022-11-05T05:32:38.183Z,959.08
2022-11-05T05:33:33.576Z,959.08
2022-11-05T05:34:28.556Z,959.10
2022-11-05T05:35:24.352Z,959.10
2022-11-05T05:36:19.511Z,959.10
2022-11-05T05:37:14.584Z,959.16
2022-11-05T05:38:09.818Z,959.16
2022-11-05T05:39:04.935Z,959.12
2022-11-05T05:40:01.271Z,959.14
2022-11-05T05:40:56.525Z,959.20
2022-11-05T05:41:52.315Z,959.20
2022-11-05T05:42:47.511Z,959.22
2022-11-05T05:43:42.669Z,959.22
2022-11-05T05:44:38.515Z,959.24
2022-11-05T05:45:33.644Z,959.24
2022-11-05T05:46:29.452Z,959.24
2022-11-05T05:47:24.515Z,959.24
2022-11-05T05:48:19.784Z,959.24
2022-11-05T05:49:15.499Z,959.26
2022-11-05T05:50:10.622Z,959.26
2022-11-05T05:51:05.850Z,959.30
2022-11-05T05:52:02.211Z,959.28
2022-11-05T05:52:57.299Z,959.32
2022-11-05T05:53:52.522Z,959.34
2022-11-05T05:54:47.632Z,959.32
2022-11-05T05:55:45.618Z,959.34
2022-11-05T05:56:40.893Z,959.36
2022-11-05T05:57:36.107Z,959.38
2022-11-05T05:58:31.819Z,959.38
2022-11-05T05:59:27.048Z,959.38
2022-11-05T06:00:22.191Z,959.40
2022-11-05T06:01:19.278Z,959.42
2022-11-05T06:02:12.489Z,959.40
2022-11-05T06:03:07.868Z,959.42
2022-11-05T06:04:02.576Z,959.44
2022-11-05T06:04:57.823Z,959.46
2022-11-05T06:05:52.734Z,959.44
2022-11-05T06:06:47.885Z,959.46
2022-11-05T06:07:42.906Z,959.48
2022-11-05T06:08:38.062Z,959.48
2022-11-05T06:09:33.063Z,959.48
2022-11-05T06:10:28.292Z,959.48
2022-11-05T06:11:23.083Z,959.48
2022-11-05T06:12:18.081Z,959.50
2022-11-05T06:13:13.228Z,959.52
2022-11-05T06:14:10.559Z,959.52
2022-11-05T06:15:05.671Z,959.54
2022-11-05T06:16:00.861Z,959.54
2022-11-05T06:16:56.048Z,959.57
2022-11-05T06:17:51.233Z,959.59
2022-11-05T06:18:46.289Z,959.61
2022-11-05T06:19:41.369Z,959.63
2022-11-05T06:20:36.641Z,959.65
2022-11-05T06:21:31.500Z,959.65
2022-11-05T06:22:26.597Z,959.67
2022-11-05T06:23:21.685Z,959.67
2022-11-05T06:24:16.688Z,959.71
2022-11-05T06:25:12.087Z,959.71
2022-11-05T06:26:07.068Z,959.73
2022-11-05T06:27:01.967Z,959.71
2022-11-05T06:27:57.149Z,959.71
2022-11-05T06:28:51.999Z,959.73
2022-11-05T06:29:47.120Z,959.75
2022-11-05T06:30:42.246Z,959.75
2022-11-05T06:31:37.302Z,959.79
2022-11-05T06:32:32.286Z,959.77
2022-11-05T06:33:27.309Z,959.81
2022-11-05T06:34:22.408Z,959.81
2022-11-05T06:35:17.533Z,959.83
2022-11-05T06:36:12.670Z,959.83
2022-11-05T06:37:07.941Z,959.85
2022-11-05T06:38:03.232Z,959.89
2022-11-05T06:38:58.497Z,959.87
2022-11-05T06:39:53.722Z,959.89
2022-11-05T06:40:48.986Z,959.89
2022-11-05T06:42:16.635Z,959.89
2022-11-05T06:42:40.580Z,959.91
2022-11-05T06:43:34.910Z,959.91
2022-11-05T06:44:30.178Z,959.93
2022-11-05T06:45:25.455Z,959.95
2022-11-05T06:46:20.878Z,959.95
2022-11-05T06:47:16.128Z,959.95
2022-11-05T06:48:11.252Z,959.97
2022-11-05T06:49:06.506Z,959.97
2022-11-05T06:50:01.819Z,960.01
2022-11-05T06:50:57.029Z,960.01
2022-11-05T06:51:52.479Z,960.03
2022-11-05T06:52:47.594Z,960.03
2022-11-05T06:53:42.867Z,960.04
2022-11-05T06:54:38.139Z,960.06
2022-11-05T06:55:33.614Z,960.08
2022-11-05T06:56:28.869Z,960.08
2022-11-05T06:57:24.153Z,960.10
2022-11-05T06:58:19.406Z,960.12
2022-11-05T06:59:14.785Z,960.14
2022-11-05T07:00:09.980Z,960.14
2022-11-05T07:01:05.123Z,960.18
2022-11-05T07:02:00.526Z,960.16
2022-11-05T07:02:55.396Z,960.20
2022-11-05T07:03:50.622Z,960.22
2022-11-05T07:04:45.672Z,960.22
2022-11-05T07:05:40.776Z,960.24
2022-11-05T07:06:37.111Z,960.26
2022-11-05T07:07:30.929Z,960.28
2022-11-05T07:08:25.908Z,960.30
2022-11-05T07:09:20.897Z,960.32
2022-11-05T07:10:16.028Z,960.32
2022-11-05T07:11:11.095Z,960.36
2022-11-05T07:12:06.384Z,960.36
2022-11-05T07:13:05.119Z,960.40
2022-11-05T07:13:59.167Z,960.38
2022-11-05T07:14:53.200Z,960.40
2022-11-05T07:15:48.270Z,960.44
2022-11-05T07:16:43.480Z,960.46
2022-11-05T07:17:38.245Z,960.46
2022-11-05T07:18:33.283Z,960.48
2022-11-05T07:19:28.349Z,960.48
2022-11-05T07:20:23.528Z,960.50
2022-11-05T07:21:18.461Z,960.50
2022-11-05T07:22:14.665Z,960.54
2022-11-05T07:23:08.908Z,960.52
2022-11-05T07:24:03.503Z,960.52
2022-11-05T07:24:58.567Z,960.52
2022-11-05T07:25:53.909Z,960.52
2022-11-05T07:26:49.200Z,960.54
2022-11-05T07:27:44.521Z,960.56
2022-11-05T07:28:39.903Z,960.58
2022-11-05T07:29:35.206Z,960.59
2022-11-05T07:30:30.664Z,960.58
2022-11-05T07:31:25.898Z,960.61
2022-11-05T07:32:21.221Z,960.61
2022-11-05T07:33:17.093Z,960.63
2022-11-05T07:34:12.178Z,960.63
2022-11-05T07:35:07.505Z,960.65
2022-11-05T07:36:02.888Z,960.75
2022-11-05T07:36:58.277Z,960.67
2022-11-05T07:37:53.675Z,960.69
2022-11-05T07:38:49.036Z,960.67
2022-11-05T07:39:44.409Z,960.67
2022-11-05T07:40:40.298Z,960.69
2022-11-05T07:41:35.108Z,960.71
2022-11-05T07:42:30.455Z,960.69
2022-11-05T07:43:25.856Z,960.69
2022-11-05T07:44:21.002Z,960.73
2022-11-05T07:45:16.545Z,960.73
2022-11-05T07:46:13.805Z,960.75
2022-11-05T07:47:06.009Z,960.75
2022-11-05T07:48:01.347Z,960.77
2022-11-05T07:48:56.314Z,960.79
2022-11-05T07:49:51.435Z,960.79
2022-11-05T07:50:47.034Z,960.81
2022-11-05T07:51:43.372Z,960.81
2022-11-05T07:52:38.459Z,960.83
2022-11-05T07:53:33.483Z,960.85
2022-11-05T07:54:28.448Z,960.85
2022-11-05T07:55:23.551Z,960.83
2022-11-05T07:56:18.640Z,960.85
2022-11-05T07:57:13.882Z,960.87
2022-11-05T07:58:09.173Z,960.89
2022-11-05T07:59:03.994Z,960.89
2022-11-05T07:59:59.064Z,960.89
2022-11-05T08:00:54.314Z,960.91
2022-11-05T08:01:50.133Z,960.93
2022-11-05T08:02:45.740Z,960.93
2022-11-05T08:03:40.969Z,960.95
2022-11-05T08:04:36.487Z,960.95
2022-11-05T08:05:32.155Z,960.95
2022-11-05T08:06:27.516Z,960.95
2022-11-05T08:07:23.327Z,960.97
2022-11-05T08:08:18.699Z,960.99
2022-11-05T08:09:14.269Z,960.99
2022-11-05T08:10:09.943Z,961.03
2022-11-05T08:11:05.308Z,961.03
2022-11-05T08:12:03.148Z,961.03
2022-11-05T08:12:57.074Z,961.03
2022-11-05T08:13:52.522Z,961.08
2022-11-05T08:14:48.210Z,961.10
2022-11-05T08:15:43.682Z,961.08
2022-11-05T08:16:39.312Z,961.10
2022-11-05T08:17:34.811Z,961.08
2022-11-05T08:18:30.192Z,961.08
2022-11-05T08:19:25.981Z,961.08
2022-11-05T08:20:21.362Z,961.08
2022-11-05T08:21:16.874Z,961.10
2022-11-05T08:22:12.589Z,961.10
2022-11-05T08:23:08.145Z,961.10
2022-11-05T08:24:03.438Z,961.10
2022-11-05T08:25:04.072Z,961.12
2022-11-05T08:25:56.757Z,961.08
2022-11-05T08:26:51.319Z,961.08
2022-11-05T08:27:46.688Z,961.08
2022-11-05T08:28:42.078Z,961.10
2022-11-05T08:29:37.877Z,961.10
2022-11-05T08:30:33.292Z,961.12
2022-11-05T08:31:28.968Z,961.12
2022-11-05T08:32:24.485Z,961.10
2022-11-05T08:33:19.750Z,961.14
2022-11-05T08:34:15.542Z,961.12
2022-11-05T08:35:11.324Z,961.16
2022-11-05T08:36:06.444Z,961.18
2022-11-05T08:37:03.151Z,961.16
2022-11-05T08:37:58.525Z,961.18
2022-11-05T08:38:54.314Z,961.18
2022-11-05T08:39:49.704Z,961.20
2022-11-05T08:40:45.130Z,961.18
2022-11-05T08:41:40.924Z,961.20
2022-11-05T08:42:36.395Z,961.22
2022-11-05T08:43:32.050Z,961.20
2022-11-05T08:44:27.584Z,961.18
2022-11-05T08:45:22.909Z,961.20
2022-11-05T08:46:18.614Z,961.22
2022-11-05T08:47:14.002Z,961.22
2022-11-05T08:48:09.422Z,961.22
2022-11-05T08:49:08.792Z,961.26
2022-11-05T08:50:04.301Z,961.26
2022-11-05T08:51:00.164Z,961.28
2022-11-05T08:51:55.270Z,961.26
2022-11-05T08:52:51.218Z,961.28
2022-11-05T08:53:46.116Z,961.30
2022-11-05T08:54:41.097Z,961.28
2022-11-05T08:55:36.310Z,961.28
2022-11-05T08:56:31.438Z,961.28
2022-11-05T08:57:26.417Z,961.30
2022-11-05T08:58:21.528Z,961.28
2022-11-05T08:59:16.830Z,961.30
2022-11-05T09:00:11.781Z,961.26
2022-11-05T09:01:12.789Z,961.28
2022-11-05T09:02:08.011Z,961.26
2022-11-05T09:03:03.356Z,961.28
2022-11-05T09:03:59.216Z,961.26
2022-11-05T09:04:54.590Z,961.28
2022-11-05T09:05:49.979Z,961.28
2022-11-05T09:06:45.365Z,961.28
2022-11-05T09:07:40.726Z,961.26
2022-11-05T09:08:35.827Z,961.28
2022-11-05T09:09:30.932Z,961.26
2022-11-05T09:10:26.138Z,961.26
2022-11-05T09:11:21.310Z,961.26
2022-11-05T09:12:16.252Z,961.26
2022-11-05T09:13:17.917Z,961.26
2022-11-05T09:14:07.356Z,961.30
2022-11-05T09:15:01.382Z,961.28
2022-11-05T09:15:56.496Z,961.30
2022-11-05T09:16:51.477Z,961.30
2022-11-05T09:17:46.547Z,961.32
2022-11-05T09:18:41.671Z,961.36
2022-11-05T09:19:39.846Z,961.40
2022-11-05T09:20:31.926Z,961.38
2022-11-05T09:21:26.772Z,961.40
2022-11-05T09:22:21.880Z,961.42
2022-11-05T09:23:17.285Z,961.42
2022-11-05T09:24:12.405Z,961.46
2022-11-05T09:25:07.479Z,961.48
2022-11-05T09:26:02.610Z,961.46
2022-11-05T09:26:57.583Z,961.48
2022-11-05T09:27:52.674Z,961.50
2022-11-05T09:28:47.653Z,961.48
2022-11-05T09:29:42.900Z,961.50
2022-11-05T09:30:38.164Z,961.52
2022-11-05T09:31:33.133Z,961.60
2022-11-05T09:32:28.203Z,961.62
2022-11-05T09:33:23.292Z,961.62
2022-11-05T09:34:18.341Z,961.52
2022-11-05T09:35:13.424Z,961.64
2022-11-05T09:36:10.706Z,961.62
2022-11-05T09:37:05.790Z,961.60
2022-11-05T09:38:01.233Z,961.64
2022-11-05T09:38:55.815Z,961.64
2022-11-05T09:39:50.896Z,961.67
2022-11-05T09:40:46.018Z,961.67
2022-11-05T09:41:40.983Z,961.67
2022-11-05T09:42:36.357Z,961.71
2022-11-05T09:43:32.236Z,961.71
2022-11-05T09:44:27.207Z,961.69
2022-11-05T09:45:22.240Z,961.71
2022-11-05T09:46:17.206Z,961.69
2022-11-05T09:47:12.268Z,961.69
2022-11-05T09:48:07.385Z,961.69
2022-11-05T09:49:02.459Z,961.69
2022-11-05T09:49:57.677Z,961.71
2022-11-05T09:50:52.932Z,961.71
2022-11-05T09:51:47.892Z,961.71
2022-11-05T09:52:42.997Z,961.67
2022-11-05T09:53:38.096Z,961.71
2022-11-05T09:54:33.063Z,961.71
2022-11-05T09:55:28.131Z,961.71
2022-11-05T09:56:23.406Z,961.69
2022-11-05T09:57:18.960Z,961.71
2022-11-05T09:58:14.503Z,961.69
2022-11-05T09:59:13.857Z,961.71
2022-11-05T10:00:09.249Z,961.71
2022-11-05T10:01:04.750Z,961.73
2022-11-05T10:02:00.293Z,961.73
2022-11-05T10:02:55.621Z,961.71
2022-11-05T10:03:51.072Z,961.71
2022-11-05T10:04:46.549Z,961.77
2022-11-05T10:05:42.095Z,961.75
2022-11-05T10:06:37.607Z,961.75
2022-11-05T10:07:33.068Z,961.77
2022-11-05T10:08:28.660Z,961.77
2022-11-05T10:09:24.020Z,961.77
2022-11-05T10:10:19.537Z,961.79
2022-11-05T10:11:15.052Z,961.81
2022-11-05T10:12:10.583Z,961.81
2022-11-05T10:13:06.171Z,961.83
2022-11-05T10:14:01.755Z,961.81
2022-11-05T10:14:57.173Z,961.81
2022-11-05T10:15:52.688Z,961.87
2022-11-05T10:16:48.450Z,961.83
2022-11-05T10:17:43.681Z,961.85
2022-11-05T10:18:38.739Z,961.85
2022-11-05T10:19:33.818Z,961.87
2022-11-05T10:20:28.931Z,961.87
2022-11-05T10:21:44.356Z,961.87
2022-11-05T10:22:20.100Z,961.89
2022-11-05T10:23:14.283Z,961.89
2022-11-05T10:24:09.146Z,961.93
2022-11-05T10:25:04.434Z,961.93
2022-11-05T10:25:59.303Z,961.95
2022-11-05T10:26:54.323Z,961.95
2022-11-05T10:27:49.354Z,961.97
2022-11-05T10:28:44.416Z,961.99
2022-11-05T10:29:39.432Z,962.01
2022-11-05T10:30:34.868Z,962.01
2022-11-05T10:31:35.563Z,962.03
2022-11-05T10:32:29.624Z,962.03
2022-11-05T10:33:24.915Z,962.01
2022-11-05T10:34:20.360Z,962.01
2022-11-05T10:35:15.831Z,962.01
2022-11-05T10:36:11.284Z,962.03
2022-11-05T10:37:06.802Z,962.05
2022-11-05T10:38:02.401Z,962.05
2022-11-05T10:38:57.894Z,962.05
2022-11-05T10:39:53.394Z,962.03
2022-11-05T10:40:49.028Z,962.05
2022-11-05T10:41:44.509Z,962.01
2022-11-05T10:42:39.957Z,962.05
2022-11-05T10:43:35.373Z,962.01
2022-11-05T10:44:30.792Z,961.99
2022-11-05T10:45:25.839Z,961.99
2022-11-05T10:46:21.043Z,961.97
2022-11-05T10:47:15.909Z,961.95
2022-11-05T10:48:11.114Z,961.93
2022-11-05T10:49:06.145Z,961.91
2022-11-05T10:50:01.245Z,961.95
2022-11-05T10:50:56.326Z,961.97
2022-11-05T10:51:51.540Z,961.99
2022-11-05T10:52:46.502Z,961.99
2022-11-05T10:53:41.586Z,962.05
2022-11-05T10:54:37.884Z,961.99
2022-11-05T10:55:32.890Z,961.97
2022-11-05T10:56:27.956Z,961.95
2022-11-05T10:57:23.050Z,961.93
2022-11-05T10:58:18.902Z,961.97
2022-11-05T10:59:14.372Z,961.97
2022-11-05T11:00:10.017Z,961.95
2022-11-05T11:01:05.658Z,961.99
2022-11-05T11:02:01.126Z,961.95
2022-11-05T11:02:56.548Z,961.93
2022-11-05T11:03:51.970Z,961.93
2022-11-05T11:04:47.545Z,961.93
2022-11-05T11:05:43.042Z,961.93
2022-11-05T11:06:38.327Z,961.93
2022-11-05T11:07:33.782Z,961.93
2022-11-05T11:08:29.734Z,961.91
2022-11-05T11:09:24.590Z,961.95
2022-11-05T11:10:20.048Z,961.91
2022-11-05T11:11:15.472Z,961.93
2022-11-05T11:12:10.210Z,961.93
2022-11-05T11:13:05.229Z,961.93
2022-11-05T11:14:00.250Z,961.95
2022-11-05T11:14:55.601Z,961.97
2022-11-05T11:15:50.347Z,961.97
2022-11-05T11:16:45.418Z,961.99
2022-11-05T11:17:43.298Z,961.97
2022-11-05T11:18:40.204Z,961.97
2022-11-05T11:19:34.044Z,961.97
2022-11-05T11:20:29.652Z,961.99
2022-11-05T11:21:24.939Z,962.01
2022-11-05T11:22:20.408Z,961.99
2022-11-05T11:23:16.129Z,961.97
2022-11-05T11:24:11.315Z,962.03
2022-11-05T11:25:06.775Z,962.01
2022-11-05T11:26:02.228Z,962.03
2022-11-05T11:26:57.795Z,962.05
2022-11-05T11:27:53.224Z,962.05
2022-11-05T11:28:48.733Z,962.03
2022-11-05T11:29:49.106Z,962.07
2022-11-05T11:30:40.648Z,962.01